Airport Name : East London

Other Name : East London

ICAO : FAEL

IATA : ELS

FAA :

Latitude : -33.035569

Longitude : 27.825939

Country : South Africa

Local Date and Time : 19 Sep 2020 08:03

 

TAF (Terminal Aerodrome Forecast)

TAF FAEL 190300Z 1904/1915 28007KT CAVOK BECMG 1908/1910 18007KT SCT025 BECMG 1913/1915 11005KT BKN025

 

METAR (METeorological Aerodrome Report)

FAEL 190500Z 28007KT CAVOK 15/10 Q1022

FAEL 190441Z 28007KT CAVOK 15/10 Q1022

FAEL 190400Z 29006KT CAVOK 14/10 Q1021

FAEL 190300Z 30005KT CAVOK 14/10 Q1021

To Charter a Jet Click here.